Time;durP1;ratioP1;P1;durP2;ratioP2;P2;SDS_P1;SDS_P2;PMS_P1;PMS_P2;Temp;Humidity;BMP_temperature;BMP_pressure;BME280_temperature;BME280_humidity;BME280_pressure;Samples;Min_cycle;Max_cycle;Signal;HPM_P1;HPM_P2
2021/07/20 00:01:41;;;;;;;17.55;12.30;;;22.20;90.10;;;;;;5015440;28;20499;-81
2021/07/20 00:04:07;;;;;;;19.73;13.83;;;22.10;89.90;;;;;;5029356;28;20030;-83
2021/07/20 00:06:33;;;;;;;20.42;13.20;;;22.10;89.90;;;;;;5015720;28;20491;-81
2021/07/20 00:08:59;;;;;;;16.80;12.35;;;22.10;89.80;;;;;;5015217;28;20033;-83
2021/07/20 00:11:25;;;;;;;19.90;13.57;;;22.10;89.80;;;;;;5012744;28;20034;-83
2021/07/20 00:13:51;;;;;;;16.17;12.90;;;22.10;89.50;;;;;;5015071;28;20025;-82
2021/07/20 00:16:16;;;;;;;14.68;12.13;;;22.10;89.40;;;;;;5014048;28;20401;-81
2021/07/20 00:18:42;;;;;;;16.33;12.80;;;22.00;89.10;;;;;;5014848;28;20388;-83
2021/07/20 00:21:09;;;;;;;14.60;12.00;;;22.10;89.10;;;;;;5045019;28;20037;-82
2021/07/20 00:23:36;;;;;;;19.95;12.63;;;22.00;89.10;;;;;;5042801;28;20458;-82
2021/07/20 00:26:02;;;;;;;17.85;13.25;;;22.00;89.10;;;;;;5054732;28;20082;-82
2021/07/20 00:28:29;;;;;;;24.60;13.27;;;22.00;88.80;;;;;;5054437;28;20017;-82
2021/07/20 00:30:54;;;;;;;17.15;13.13;;;22.00;88.30;;;;;;5051711;28;20079;-83
2021/07/20 00:33:20;;;;;;;16.20;12.85;;;22.00;89.30;;;;;;5053387;28;20056;-82
2021/07/20 00:35:47;;;;;;;18.25;12.27;;;22.00;89.70;;;;;;5047042;28;20021;-84
2021/07/20 00:38:15;;;;;;;15.07;12.57;;;22.00;89.00;;;;;;5054021;28;20378;-82
2021/07/20 00:40:41;;;;;;;16.83;12.57;;;21.90;88.70;;;;;;5054308;28;20020;-82
2021/07/20 00:43:07;;;;;;;15.38;12.10;;;21.80;88.80;;;;;;5049311;28;20025;-82
2021/07/20 00:45:34;;;;;;;13.73;12.27;;;21.80;89.40;;;;;;5054146;28;20037;-82
2021/07/20 00:48:00;;;;;;;14.70;12.18;;;21.80;88.60;;;;;;5053952;28;20025;-82
2021/07/20 00:50:29;;;;;;;15.85;12.45;;;21.80;89.40;;;;;;5053886;28;20492;-81
2021/07/20 00:52:55;;;;;;;19.98;12.25;;;21.80;89.70;;;;;;5053758;28;20021;-82
2021/07/20 00:55:22;;;;;;;16.02;11.93;;;21.80;89.40;;;;;;5037714;28;20021;-82
2021/07/20 00:57:48;;;;;;;13.95;12.25;;;21.80;89.50;;;;;;5040701;28;20057;-82
2021/07/20 01:00:18;;;;;;;17.10;13.48;;;21.80;89.30;;;;;;5053935;28;20418;-82
2021/07/20 01:02:44;;;;;;;20.10;13.77;;;21.80;89.90;;;;;;5049968;28;20057;-82
2021/07/20 01:05:21;;;;;;;15.25;13.07;;;21.80;89.30;;;;;;5036642;28;20389;-82
2021/07/20 01:07:48;;;;;;;17.17;12.20;;;21.70;89.70;;;;;;5053572;28;20055;-83
2021/07/20 01:10:15;;;;;;;20.08;12.90;;;21.70;88.90;;;;;;5061738;28;20442;-83
2021/07/20 01:12:45;;;;;;;17.83;12.13;;;21.70;89.00;;;;;;5050592;28;20048;-82
2021/07/20 01:15:13;;;;;;;17.25;12.75;;;21.70;88.80;;;;;;5053941;28;20024;-82
2021/07/20 01:17:44;;;;;;;22.42;12.52;;;21.60;88.80;;;;;;5053954;28;20429;-81
2021/07/20 01:20:15;;;;;;;18.70;12.73;;;21.60;89.10;;;;;;5055248;28;20041;-81
2021/07/20 01:22:52;;;;;;;20.35;12.35;;;21.60;88.80;;;;;;5064891;28;20024;-81
2021/07/20 01:25:19;;;;;;;18.70;13.00;;;21.60;88.90;;;;;;5063880;28;20028;-81
2021/07/20 01:27:52;;;;;;;20.85;12.90;;;21.50;88.90;;;;;;5053778;28;20031;-82
2021/07/20 01:30:18;;;;;;;14.60;11.48;;;21.50;88.80;;;;;;5053472;28;20056;-83
2021/07/20 01:32:46;;;;;;;17.35;12.00;;;21.50;88.90;;;;;;5046036;28;20028;-81
2021/07/20 01:35:13;;;;;;;17.83;12.52;;;;;;;;;;5042021;28;20028;-81
2021/07/20 01:37:40;;;;;;;21.58;13.20;;;;;;;;;;5060958;28;20482;-81
2021/07/20 01:40:07;;;;;;;18.80;11.60;;;;;;;;;;5053146;28;20024;-81
2021/07/20 01:42:33;;;;;;;17.50;13.00;;;;;;;;;;5053008;28;20116;-82
2021/07/20 01:45:00;;;;;;;16.42;12.15;;;;;;;;;;5052862;28;20025;-81
2021/07/20 01:47:27;;;;;;;14.45;12.43;;;;;;;;;;5052858;28;20035;-81
2021/07/20 01:49:56;;;;;;;15.63;13.40;;;21.50;88.90;;;;;;5053034;28;20029;-80
2021/07/20 01:52:24;;;;;;;15.70;12.07;;;21.40;89.50;;;;;;5052680;28;20052;-82
2021/07/20 01:54:50;;;;;;;16.08;12.23;;;21.30;89.40;;;;;;5034975;28;20427;-81
2021/07/20 01:57:17;;;;;;;15.38;13.27;;;21.30;90.00;;;;;;5053310;28;20032;-81
2021/07/20 01:59:44;;;;;;;19.90;13.63;;;21.30;89.40;;;;;;5053361;28;20036;-81
2021/07/20 02:02:34;;;;;;;17.45;13.27;;;21.30;89.50;;;;;;5053174;28;20017;-82
2021/07/20 02:10:36;;;;;;;17.33;11.65;;;21.40;88.80;;;;;;5053199;28;20051;-82
2021/07/20 02:13:03;;;;;;;15.80;12.50;;;21.40;88.00;;;;;;5052860;28;20013;-82
2021/07/20 02:15:31;;;;;;;16.40;11.98;;;21.40;87.90;;;;;;5052625;28;20100;-82
2021/07/20 02:17:58;;;;;;;17.42;11.63;;;21.40;87.60;;;;;;5052415;28;20048;-81
2021/07/20 02:20:27;;;;;;;16.35;12.50;;;21.40;87.30;;;;;;5052581;28;20136;-81
2021/07/20 02:22:56;;;;;;;16.13;11.93;;;21.40;86.90;;;;;;5067234;28;20075;-81
2021/07/20 02:25:26;;;;;;;17.65;12.60;;;21.50;86.80;;;;;;5052392;28;20099;-82
2021/07/20 02:27:53;;;;;;;14.80;11.65;;;21.50;85.90;;;;;;5052286;28;20371;-81
2021/07/20 02:30:20;;;;;;;17.10;12.43;;;21.50;85.30;;;;;;5052369;28;20028;-83
2021/07/20 02:32:47;;;;;;;22.52;13.23;;;21.50;84.90;;;;;;5052059;28;20029;-81
2021/07/20 02:35:25;;;;;;;19.35;12.40;;;21.60;84.50;;;;;;5052469;28;20032;-82
2021/07/20 02:37:52;;;;;;;13.75;11.95;;;21.60;84.50;;;;;;5052277;28;20025;-82
2021/07/20 02:40:25;;;;;;;15.95;11.70;;;21.60;83.70;;;;;;5052245;28;20462;-81
2021/07/20 02:42:53;;;;;;;13.75;11.30;;;21.60;83.90;;;;;;5052107;28;20025;-83
2021/07/20 02:45:20;;;;;;;19.60;12.85;;;21.70;83.40;;;;;;5052200;28;20036;-83
2021/07/20 02:47:47;;;;;;;15.68;12.20;;;21.70;83.30;;;;;;5052035;28;20025;-82
2021/07/20 02:50:15;;;;;;;15.68;11.77;;;21.70;83.00;;;;;;5052157;28;20100;-81
2021/07/20 02:52:45;;;;;;;14.00;11.57;;;21.80;82.40;;;;;;5052103;28;20017;-82
2021/07/20 02:55:13;;;;;;;16.77;12.13;;;21.80;82.00;;;;;;5052150;28;20025;-81
2021/07/20 02:57:41;;;;;;;14.13;12.32;;;21.90;82.00;;;;;;5052094;28;20108;-80
2021/07/20 03:00:10;;;;;;;22.15;12.35;;;22.10;81.40;;;;;;5051881;28;20067;-82
2021/07/20 03:02:40;;;;;;;17.95;12.35;;;22.20;80.50;;;;;;5052300;28;20021;-83
2021/07/20 03:05:08;;;;;;;17.27;12.23;;;22.30;80.20;;;;;;5051984;28;20024;-84
2021/07/20 03:07:36;;;;;;;17.35;11.43;;;22.40;79.60;;;;;;5052345;28;20100;-82
2021/07/20 03:10:05;;;;;;;14.55;12.18;;;22.40;79.50;;;;;;5052628;28;20017;-82
2021/07/20 03:12:32;;;;;;;15.02;11.98;;;22.50;79.20;;;;;;5052936;28;20025;-82
2021/07/20 03:14:58;;;;;;;17.92;12.45;;;22.40;79.30;;;;;;5052112;28;20498;-82
2021/07/20 03:17:27;;;;;;;21.03;12.97;;;22.40;79.20;;;;;;5040663;28;20043;-82
2021/07/20 03:19:54;;;;;;;22.45;12.20;;;22.30;79.30;;;;;;5055918;28;20690;-83
2021/07/20 03:22:24;;;;;;;17.42;12.10;;;22.30;79.30;;;;;;5055910;28;20164;-82
2021/07/20 03:24:51;;;;;;;18.35;12.75;;;22.20;79.60;;;;;;5056058;28;20040;-82
2021/07/20 03:27:20;;;;;;;16.42;11.85;;;22.10;79.50;;;;;;5056205;28;20355;-83
2021/07/20 03:29:46;;;;;;;16.13;11.93;;;22.10;79.00;;;;;;5042056;28;20029;-83
2021/07/20 03:32:15;;;;;;;18.23;12.50;;;22.10;79.10;;;;;;5055621;28;20477;-81
2021/07/20 03:34:43;;;;;;;17.45;11.65;;;22.10;79.30;;;;;;5051749;28;20021;-83
2021/07/20 03:37:10;;;;;;;23.83;12.98;;;22.10;79.10;;;;;;5055955;28;20024;-83
2021/07/20 03:39:36;;;;;;;13.73;11.73;;;22.20;78.90;;;;;;5056474;28;20045;-83
2021/07/20 03:42:03;;;;;;;16.77;11.98;;;22.20;78.70;;;;;;5056507;28;20201;-82
2021/07/20 03:44:30;;;;;;;19.93;12.43;;;22.30;78.30;;;;;;5059992;28;20075;-81
2021/07/20 03:46:57;;;;;;;15.47;11.87;;;22.30;77.90;;;;;;5071517;28;20048;-82
2021/07/20 03:49:26;;;;;;;18.30;12.30;;;22.40;77.90;;;;;;5073359;28;20254;-82
2021/07/20 03:51:56;;;;;;;18.58;11.88;;;22.40;77.80;;;;;;5045768;28;20401;-83
2021/07/20 03:54:23;;;;;;;14.57;11.90;;;22.40;77.60;;;;;;5055928;28;20108;-81
2021/07/20 03:56:50;;;;;;;15.23;11.48;;;22.50;77.50;;;;;;5055527;28;20017;-82
2021/07/20 03:59:16;;;;;;;15.75;11.55;;;22.60;76.90;;;;;;5055507;28;20074;-81
2021/07/20 04:01:45;;;;;;;14.53;11.97;;;22.60;76.50;;;;;;5055052;28;20025;-82
2021/07/20 04:04:14;;;;;;;13.63;11.95;;;22.60;76.60;;;;;;5055678;28;20017;-82
2021/07/20 04:06:41;;;;;;;14.43;11.57;;;22.50;76.60;;;;;;5037433;28;20025;-82
2021/07/20 04:09:10;;;;;;;17.38;12.07;;;22.60;76.70;;;;;;5055278;28;20108;-81
2021/07/20 04:11:36;;;;;;;16.42;10.98;;;22.60;76.30;;;;;;5055122;28;20037;-84
2021/07/20 04:14:04;;;;;;;16.73;11.98;;;22.60;75.90;;;;;;5055796;28;20157;-84
2021/07/20 04:16:31;;;;;;;17.63;12.68;;;22.70;75.80;;;;;;5055762;28;20032;-83
2021/07/20 04:18:57;;;;;;;17.45;11.73;;;22.80;75.60;;;;;;5056198;28;20013;-82
2021/07/20 04:21:24;;;;;;;15.10;11.23;;;22.80;75.60;;;;;;5061330;28;20064;-82
2021/07/20 04:23:51;;;;;;;15.68;11.52;;;23.00;75.20;;;;;;5065765;28;20012;-80
2021/07/20 04:26:18;;;;;;;16.30;11.32;;;23.00;75.10;;;;;;5069663;28;20033;-82
2021/07/20 04:28:44;;;;;;;14.98;10.52;;;23.10;75.00;;;;;;5053553;28;20028;-81
2021/07/20 04:31:12;;;;;;;14.77;9.82;;;23.20;74.80;;;;;;5054844;28;20433;-81
2021/07/20 04:33:39;;;;;;;16.17;11.18;;;23.20;74.60;;;;;;5055114;28;20489;-82
2021/07/20 04:36:06;;;;;;;18.05;11.20;;;23.30;74.20;;;;;;5062957;28;20049;-84
2021/07/20 04:38:35;;;;;;;15.52;11.48;;;23.50;73.60;;;;;;5037053;28;20421;-81
2021/07/20 04:41:02;;;;;;;16.90;10.25;;;23.60;73.60;;;;;;5055377;28;20021;-82
2021/07/20 04:43:28;;;;;;;35.13;12.03;;;23.70;72.90;;;;;;5055683;28;20021;-82
2021/07/20 04:45:56;;;;;;;18.98;10.43;;;23.70;73.10;;;;;;5054681;28;20032;-84
2021/07/20 04:48:23;;;;;;;12.73;9.90;;;23.80;72.30;;;;;;5054761;28;20032;-83
2021/07/20 04:50:51;;;;;;;18.33;11.20;;;23.90;71.80;;;;;;5054444;28;20025;-84
2021/07/20 04:53:18;;;;;;;12.07;10.65;;;23.90;71.90;;;;;;5055333;28;20021;-82
2021/07/20 04:55:48;;;;;;;14.70;10.45;;;24.00;71.80;;;;;;5054482;28;20425;-81
2021/07/20 04:58:17;;;;;;;14.93;10.02;;;24.00;71.50;;;;;;5054218;28;20371;-82
2021/07/20 05:00:50;;;;;;;14.68;10.10;;;24.20;71.30;;;;;;5054428;28;20104;-85
2021/07/20 05:03:19;;;;;;;15.85;9.77;;;24.30;70.60;;;;;;5053683;28;20017;-84
2021/07/20 05:05:47;;;;;;;12.63;9.90;;;24.50;70.00;;;;;;5053982;28;20109;-82
2021/07/20 05:08:15;;;;;;;12.63;10.27;;;24.70;69.80;;;;;;5053615;28;20104;-82
2021/07/20 05:10:47;;;;;;;14.38;10.63;;;24.90;68.00;;;;;;5053339;28;20044;-81
2021/07/20 05:13:16;;;;;;;15.65;10.43;;;25.00;67.50;;;;;;5054150;28;20024;-82
2021/07/20 05:15:44;;;;;;;10.52;9.35;;;25.40;66.70;;;;;;5024416;28;20547;-82
2021/07/20 05:18:13;;;;;;;12.82;10.00;;;25.90;65.30;;;;;;5053518;28;20025;-83
2021/07/20 05:20:40;;;;;;;13.27;9.25;;;26.50;63.40;;;;;;5051345;28;20072;-84
2021/07/20 05:23:06;;;;;;;14.85;9.20;;;27.30;62.30;;;;;;5035912;28;20028;-83
2021/07/20 05:25:32;;;;;;;12.67;9.63;;;28.00;59.60;;;;;;5053564;28;20400;-83
2021/07/20 05:28:00;;;;;;;16.95;13.82;;;28.90;57.10;;;;;;5053262;28;20397;-82
2021/07/20 05:30:26;;;;;;;14.05;10.93;;;29.40;55.00;;;;;;5053146;28;20154;-83
2021/07/20 05:32:53;;;;;;;10.67;9.57;;;30.10;54.00;;;;;;5034777;28;20043;-83
2021/07/20 05:35:19;;;;;;;11.75;8.70;;;30.50;52.30;;;;;;5054291;28;20671;-85
2021/07/20 05:37:49;;;;;;;12.68;9.45;;;;;;;;;;5054550;28;20039;-86
2021/07/20 05:40:20;;;;;;;13.13;10.43;;;31.00;50.90;;;;;;5054322;28;20386;-83
2021/07/20 05:42:46;;;;;;;14.00;10.35;;;31.30;49.80;;;;;;5053062;28;20029;-84
2021/07/20 05:45:14;;;;;;;16.55;9.18;;;31.60;49.10;;;;;;5050359;28;20082;-85
2021/07/20 05:47:49;;;;;;;11.98;8.35;;;31.80;49.00;;;;;;5046861;28;20021;-84
2021/07/20 05:50:16;;;;;;;11.45;8.98;;;32.40;48.10;;;;;;5045748;28;20029;-86
2021/07/20 05:52:48;;;;;;;13.40;9.55;;;33.00;46.70;;;;;;5047433;28;20023;-84
2021/07/20 05:55:17;;;;;;;11.50;8.25;;;33.30;45.90;;;;;;5034802;28;20025;-82
2021/07/20 05:57:48;;;;;;;13.65;9.88;;;33.90;44.80;;;;;;5042127;28;20057;-82
2021/07/20 06:00:20;;;;;;;12.40;8.25;;;33.70;44.50;;;;;;5052584;28;20092;-81
2021/07/20 06:02:47;;;;;;;13.63;9.45;;;33.90;44.70;;;;;;5053210;28;20031;-81
2021/07/20 06:05:14;;;;;;;12.55;10.20;;;34.30;43.90;;;;;;5053191;28;20013;-82
2021/07/20 06:07:42;;;;;;;10.85;8.50;;;34.50;43.20;;;;;;5053535;28;20387;-82
2021/07/20 06:10:09;;;;;;;11.32;8.52;;;34.50;43.20;;;;;;5053596;28;20024;-81
2021/07/20 06:12:36;;;;;;;11.18;9.18;;;34.60;43.00;;;;;;5054709;28;20033;-82
2021/07/20 06:15:04;;;;;;;16.05;10.00;;;35.50;42.10;;;;;;5031340;28;20017;-79
2021/07/20 06:17:30;;;;;;;9.07;8.13;;;36.00;41.00;;;;;;5065130;28;20025;-81
2021/07/20 06:19:56;;;;;;;11.73;9.23;;;36.30;40.40;;;;;;5055189;28;20059;-82
2021/07/20 06:22:26;;;;;;;13.27;9.35;;;36.70;39.40;;;;;;5052576;28;20542;-82
2021/07/20 06:24:53;;;;;;;14.35;9.20;;;37.20;39.50;;;;;;5052919;28;20021;-82
2021/07/20 06:27:21;;;;;;;14.07;9.05;;;37.30;37.80;;;;;;5052774;28;20053;-81
2021/07/20 06:29:53;;;;;;;12.05;9.60;;;37.50;38.00;;;;;;5052893;28;20471;-83
2021/07/20 06:32:21;;;;;;;13.48;9.13;;;38.10;37.60;;;;;;5052448;28;20082;-84
2021/07/20 06:34:48;;;;;;;12.90;9.18;;;38.00;36.90;;;;;;5052360;28;20017;-84
2021/07/20 06:37:18;;;;;;;12.40;9.18;;;36.90;37.50;;;;;;5052425;28;20035;-82
2021/07/20 06:39:45;;;;;;;11.45;9.57;;;35.70;38.30;;;;;;5054658;28;20017;-82
2021/07/20 06:42:12;;;;;;;12.07;9.20;;;34.80;38.50;;;;;;5034650;28;20025;-83
2021/07/20 06:44:39;;;;;;;12.32;9.57;;;34.60;39.10;;;;;;5052130;28;20669;-81
2021/07/20 06:47:06;;;;;;;10.88;9.30;;;34.70;39.20;;;;;;5052330;28;20033;-82
2021/07/20 06:49:36;;;;;;;10.50;8.57;;;35.00;39.10;;;;;;5034139;28;20070;-82
2021/07/20 06:52:04;;;;;;;9.82;8.55;;;35.40;38.60;;;;;;5051650;28;20395;-81
2021/07/20 06:54:30;;;;;;;10.30;7.97;;;36.00;37.80;;;;;;5055135;28;20360;-83
2021/07/20 06:56:59;;;;;;;7.95;7.15;;;36.70;36.00;;;;;;5056002;28;20021;-82
2021/07/20 06:59:26;;;;;;;9.07;7.15;;;37.20;34.60;;;;;;5056237;28;20107;-80
2021/07/20 07:01:53;;;;;;;9.93;8.70;;;37.40;33.60;;;;;;5056082;28;20013;-81
2021/07/20 07:04:31;;;;;;;10.13;6.93;;;37.40;34.30;;;;;;5066799;28;20027;-81
2021/07/20 07:06:58;;;;;;;8.95;7.35;;;38.00;33.70;;;;;;5039883;28;20021;-82
2021/07/20 07:09:30;;;;;;;11.48;7.25;;;38.60;33.00;;;;;;5038241;28;20544;-81
2021/07/20 07:11:58;;;;;;;9.63;6.32;;;39.10;32.20;;;;;;5069813;28;20059;-83
2021/07/20 07:14:24;;;;;;;8.73;7.07;;;39.70;31.20;;;;;;5038274;28;20463;-82
2021/07/20 07:16:53;;;;;;;9.57;6.00;;;40.10;30.50;;;;;;5037911;28;20489;-81
2021/07/20 07:19:20;;;;;;;11.73;6.70;;;40.40;29.60;;;;;;5055772;28;20044;-83
2021/07/20 07:21:48;;;;;;;10.32;5.68;;;40.30;29.50;;;;;;5056170;28;20387;-81
2021/07/20 07:24:19;;;;;;;8.27;5.18;;;39.90;29.40;;;;;;5055975;28;20024;-83
2021/07/20 07:26:47;;;;;;;6.32;5.13;;;39.20;29.50;;;;;;5058495;28;20017;-82
2021/07/20 07:29:15;;;;;;;8.05;5.78;;;39.20;29.60;;;;;;5055973;28;20028;-81
2021/07/20 07:31:44;;;;;;;6.13;5.53;;;39.40;29.50;;;;;;5057410;28;20029;-82
2021/07/20 07:34:11;;;;;;;6.75;5.07;;;39.60;29.10;;;;;;5055460;28;20104;-82
2021/07/20 07:36:37;;;;;;;;;;;39.40;29.40;;;;;;5038236;28;20082;-81
2021/07/20 07:39:05;;;;;;;6.35;5.22;;;39.70;30.20;;;;;;5055697;28;20374;-81
2021/07/20 07:41:34;;;;;;;5.63;5.13;;;39.80;29.30;;;;;;5055447;28;20040;-81
2021/07/20 07:44:01;;;;;;;11.43;5.95;;;39.80;28.90;;;;;;5056054;28;20037;-82
2021/07/20 07:46:34;;;;;;;7.05;5.72;;;39.60;29.50;;;;;;5038250;28;20486;-82
2021/07/20 07:49:00;;;;;;;6.00;4.95;;;39.70;29.50;;;;;;5055638;28;20043;-82
2021/07/20 07:51:26;;;;;;;7.35;4.85;;;39.90;29.00;;;;;;5058169;28;20136;-83
2021/07/20 07:53:58;;;;;;;7.70;5.18;;;40.10;28.90;;;;;;5048586;28;20050;-81
2021/07/20 07:56:28;;;;;;;6.70;4.95;;;40.10;29.20;;;;;;5054870;28;20022;-83
2021/07/20 07:58:56;;;;;;;7.05;5.40;;;39.80;28.30;;;;;;5055121;28;20103;-84
2021/07/20 08:01:24;;;;;;;5.25;4.40;;;39.20;28.40;;;;;;5055259;28;20055;-82
2021/07/20 08:03:54;;;;;;;7.05;4.90;;;38.90;28.80;;;;;;5054968;28;20482;-81
2021/07/20 08:06:21;;;;;;;9.20;5.45;;;38.20;29.50;;;;;;5054313;28;20033;-80
2021/07/20 08:08:49;;;;;;;9.55;5.38;;;38.20;30.00;;;;;;5036854;28;20067;-81
2021/07/20 08:11:16;;;;;;;7.15;5.40;;;38.10;30.20;;;;;;5055623;28;20162;-81
2021/07/20 08:13:43;;;;;;;6.90;5.22;;;38.40;30.50;;;;;;5055822;28;20028;-80
2021/07/20 08:16:12;;;;;;;4.95;4.45;;;38.60;30.00;;;;;;5054744;28;20057;-82
2021/07/20 08:18:38;;;;;;;5.90;4.40;;;39.00;29.00;;;;;;5054622;28;20031;-81
2021/07/20 08:21:08;;;;;;;6.28;4.95;;;39.00;29.10;;;;;;5054330;28;20053;-84
2021/07/20 08:23:35;;;;;;;7.80;5.55;;;38.90;29.40;;;;;;5036486;28;20032;-82
2021/07/20 08:26:21;;;;;;;8.60;6.03;;;39.00;29.80;;;;;;5050706;28;20061;-83
2021/07/20 08:28:55;;;;;;;9.70;5.80;;;39.70;29.80;;;;;;5067374;28;20020;-81
2021/07/20 08:31:23;;;;;;;5.75;5.13;;;39.80;29.70;;;;;;5069845;28;20064;-80
2021/07/20 08:33:54;;;;;;;7.13;5.80;;;40.30;29.50;;;;;;5055371;28;20507;-83
2021/07/20 08:36:22;;;;;;;5.45;4.93;;;40.30;29.50;;;;;;5055411;28;20018;-81
2021/07/20 08:38:51;;;;;;;6.07;4.20;;;40.40;29.00;;;;;;5055287;28;20075;-81
2021/07/20 08:41:59;;;;;;;5.65;4.60;;;40.30;28.10;;;;;;5038220;28;20017;-81
2021/07/20 08:45:02;;;;;;;7.85;4.32;;;39.70;28.40;;;;;;5064535;28;20025;-85
2021/07/20 08:47:50;;;;;;;7.75;4.80;;;39.70;28.50;;;;;;5065629;28;20071;-83
2021/07/20 08:50:30;;;;;;;6.78;4.05;;;40.50;28.30;;;;;;5043514;28;20031;-83
2021/07/20 08:53:20;;;;;;;31.00;14.63;;;40.80;27.70;;;;;;5055113;28;20375;-82
2021/07/20 08:55:50;;;;;;;6.75;4.50;;;40.50;27.90;;;;;;5054878;28;20099;-81
2021/07/20 08:58:26;;;;;;;5.93;4.25;;;40.40;28.10;;;;;;5055197;28;20017;-82
2021/07/20 09:01:01;;;;;;;6.43;4.28;;;40.30;28.20;;;;;;5037055;28;20110;-82
2021/07/20 09:04:00;;;;;;;9.60;4.85;;;40.60;28.20;;;;;;5037137;28;20017;-81
2021/07/20 09:06:34;;;;;;;5.30;4.70;;;40.50;28.00;;;;;;5011377;28;20190;-81
2021/07/20 09:09:39;;;;;;;6.03;4.80;;;40.60;28.20;;;;;;5051175;28;20044;-82
2021/07/20 09:12:20;;;;;;;;;;;40.30;28.10;;;;;;4965325;28;20039;-82
2021/07/20 09:15:04;;;;;;;5.75;4.57;;;39.80;28.60;;;;;;4966651;28;19906;-83
2021/07/20 09:17:57;;;;;;;5.50;4.68;;;40.00;28.60;;;;;;4956340;28;20106;-81
2021/07/20 09:20:44;;;;;;;9.65;4.82;;;40.10;28.50;;;;;;4956586;28;20075;-83
2021/07/20 09:23:38;;;;;;;8.70;5.55;;;40.00;28.30;;;;;;4941857;28;20038;-82
2021/07/20 09:26:12;;;;;;;7.00;4.80;;;40.30;28.50;;;;;;4953213;28;20039;-82
2021/07/20 09:29:12;;;;;;;7.32;4.43;;;40.50;28.20;;;;;;4953615;28;20028;-84
2021/07/20 09:31:47;;;;;;;10.00;4.60;;;40.20;28.40;;;;;;4938153;29;20035;-83
2021/07/20 09:34:28;;;;;;;4.75;4.07;;;39.90;28.00;;;;;;4954122;28;20122;-82
2021/07/20 09:37:03;;;;;;;7.07;4.45;;;39.50;28.30;;;;;;4953402;28;20035;-82
2021/07/20 09:40:08;;;;;;;10.68;4.53;;;39.20;28.70;;;;;;4953522;28;20039;-82
2021/07/20 09:43:01;;;;;;;5.50;4.97;;;39.30;28.90;;;;;;4915213;29;20413;-82
2021/07/20 09:45:42;;;;;;;5.13;4.63;;;39.20;28.50;;;;;;4966718;28;20328;-82
2021/07/20 09:48:36;;;;;;;5.10;4.53;;;38.60;28.70;;;;;;5051168;28;20017;-82
2021/07/20 09:51:21;;;;;;;5.80;4.03;;;38.90;29.00;;;;;;5066259;28;20044;-82
2021/07/20 09:54:19;;;;;;;5.37;4.50;;;39.40;28.70;;;;;;5042483;28;20017;-82
2021/07/20 09:57:17;;;;;;;5.40;3.95;;;39.30;28.00;;;;;;5055697;28;20622;-83
2021/07/20 10:00:04;;;;;;;6.70;4.20;;;39.00;28.30;;;;;;5053978;28;20078;-82
2021/07/20 10:02:56;;;;;;;7.30;4.88;;;39.10;28.00;;;;;;5054721;28;20026;-83
2021/07/20 10:05:44;;;;;;;5.68;3.53;;;39.30;28.30;;;;;;5036799;28;20017;-84
2021/07/20 10:08:32;;;;;;;4.30;3.70;;;39.60;27.80;;;;;;5053774;28;20088;-83
2021/07/20 10:11:29;;;;;;;6.10;4.47;;;39.30;27.70;;;;;;5054903;28;20037;-82
2021/07/20 10:14:32;;;;;;;4.22;3.83;;;39.00;28.00;;;;;;5053085;28;20025;-83
2021/07/20 10:17:07;;;;;;;4.15;3.17;;;39.20;27.80;;;;;;5053358;28;20063;-83
2021/07/20 10:19:55;;;;;;;5.32;3.65;;;39.30;28.30;;;;;;5053200;28;20025;-83
2021/07/20 10:22:59;;;;;;;6.95;3.33;;;39.10;27.20;;;;;;5054994;28;20032;-82
2021/07/20 10:25:52;;;;;;;3.75;2.78;;;39.20;27.40;;;;;;5052146;28;20032;-82
2021/07/20 10:28:30;;;;;;;4.60;2.78;;;39.70;26.70;;;;;;5048692;28;20024;-82
2021/07/20 10:31:06;;;;;;;3.40;3.10;;;39.70;26.20;;;;;;5057652;28;20372;-82
2021/07/20 10:33:40;;;;;;;4.82;2.40;;;40.20;25.90;;;;;;5035953;28;20083;-82
2021/07/20 10:36:27;;;;;;;4.43;2.97;;;38.70;26.00;;;;;;5054127;28;20033;-84
2021/07/20 10:38:59;;;;;;;4.78;3.35;;;36.90;27.20;;;;;;5052940;28;20017;-83
2021/07/20 10:41:34;;;;;;;5.82;3.70;;;35.30;28.30;;;;;;5053308;28;20017;-84
2021/07/20 10:44:07;;;;;;;4.97;3.30;;;34.10;29.30;;;;;;5054163;28;20024;-83
2021/07/20 10:46:35;;;;;;;4.82;3.03;;;33.00;30.10;;;;;;5052958;28;20025;-82
2021/07/20 10:49:32;;;;;;;4.80;3.30;;;31.90;30.60;;;;;;5053336;28;20040;-84
2021/07/20 10:52:10;;;;;;;5.47;3.38;;;31.00;32.50;;;;;;5008804;28;20413;-82
2021/07/20 10:54:46;;;;;;;5.18;3.55;;;30.50;32.90;;;;;;5058461;28;20045;-82
2021/07/20 10:57:22;;;;;;;4.55;3.65;;;30.00;33.60;;;;;;5035067;28;20512;-82
2021/07/20 11:00:08;;;;;;;6.70;3.42;;;29.60;34.20;;;;;;5048924;28;20029;-82
2021/07/20 11:02:43;;;;;;;;;;;29.20;35.00;;;;;;5053311;28;20060;-81
2021/07/20 11:05:10;;;;;;;4.68;2.83;;;29.00;34.60;;;;;;5035930;28;19939;-83
2021/07/20 11:07:46;;;;;;;4.20;2.78;;;28.80;35.80;;;;;;5057569;28;20055;-82
2021/07/20 11:10:23;;;;;;;5.82;2.92;;;28.80;36.50;;;;;;5068085;28;20112;-84
2021/07/20 11:12:57;;;;;;;5.68;3.22;;;28.80;36.50;;;;;;5055649;28;20078;-81
2021/07/20 11:15:28;;;;;;;3.40;2.50;;;28.80;36.50;;;;;;5059945;28;20055;-81
2021/07/20 11:17:58;;;;;;;4.10;2.90;;;28.70;36.60;;;;;;5062517;28;20389;-82
2021/07/20 11:20:24;;;;;;;6.70;3.83;;;28.50;36.70;;;;;;5053431;28;20104;-85
2021/07/20 11:22:53;;;;;;;7.05;3.63;;;28.50;37.20;;;;;;5053573;28;20025;-82
2021/07/20 11:25:20;;;;;;;3.47;2.78;;;28.40;37.30;;;;;;5052617;28;20143;-83
2021/07/20 11:27:48;;;;;;;5.78;3.15;;;28.50;37.10;;;;;;5052680;28;20112;-81
2021/07/20 11:30:18;;;;;;;4.22;3.03;;;28.40;36.90;;;;;;5052934;28;20048;-81
2021/07/20 11:32:58;;;;;;;4.75;2.88;;;28.30;36.50;;;;;;5054783;28;20075;-82
2021/07/20 11:35:27;;;;;;;3.33;2.72;;;28.20;37.00;;;;;;5062011;28;20032;-82
2021/07/20 11:38:03;;;;;;;5.28;3.28;;;28.10;36.80;;;;;;5052801;28;20056;-83
2021/07/20 11:40:38;;;;;;;5.78;3.45;;;28.10;37.60;;;;;;5035808;28;20060;-82
2021/07/20 11:43:09;;;;;;;5.03;3.63;;;28.20;37.60;;;;;;5037832;28;20486;-83
2021/07/20 11:45:49;;;;;;;4.70;3.53;;;28.30;37.70;;;;;;5055543;28;20036;-83
2021/07/20 11:48:14;;;;;;;4.25;3.03;;;28.20;37.30;;;;;;5055203;28;20021;-82
2021/07/20 11:51:00;;;;;;;5.47;3.20;;;28.30;37.10;;;;;;5055952;28;20872;-81
2021/07/20 11:53:50;;;;;;;4.75;3.20;;;28.40;37.10;;;;;;5055816;28;20457;-83
2021/07/20 11:56:30;;;;;;;5.43;2.70;;;28.40;36.10;;;;;;5055553;28;20028;-82
2021/07/20 11:59:05;;;;;;;4.68;2.78;;;28.30;36.60;;;;;;5055954;28;20406;-81
2021/07/20 12:02:22;;;;;;;5.45;3.10;;;28.20;36.70;;;;;;5055787;28;20029;-82
2021/07/20 12:05:17;;;;;;;5.72;2.58;;;28.20;36.70;;;;;;5003933;28;20059;-81
2021/07/20 12:08:03;;;;;;;5.55;2.88;;;28.10;36.00;;;;;;5055696;28;20035;-82
2021/07/20 12:10:51;;;;;;;3.92;2.72;;;28.00;36.40;;;;;;5037509;28;20029;-82
2021/07/20 12:13:19;;;;;;;6.35;3.30;;;27.90;36.60;;;;;;5039353;28;20372;-83
2021/07/20 12:15:52;;;;;;;6.97;3.30;;;27.80;36.70;;;;;;5039651;28;20037;-81
2021/07/20 12:18:23;;;;;;;4.88;2.80;;;27.80;37.30;;;;;;5055748;28;20017;-82
2021/07/20 12:20:50;;;;;;;6.88;2.70;;;27.80;37.00;;;;;;5055563;28;20037;-82
2021/07/20 12:23:17;;;;;;;7.70;3.63;;;27.80;37.00;;;;;;5055562;28;20036;-82
2021/07/20 12:25:43;;;;;;;5.72;2.95;;;27.80;37.60;;;;;;5037440;28;20078;-82
2021/07/20 12:28:09;;;;;;;7.93;2.38;;;27.80;36.80;;;;;;5055130;28;20143;-81
2021/07/20 12:30:37;;;;;;;4.05;2.95;;;27.60;37.30;;;;;;5054751;28;20028;-82
2021/07/20 12:33:13;;;;;;;5.78;2.70;;;27.50;37.50;;;;;;5054817;28;20029;-81
2021/07/20 12:35:43;;;;;;;5.97;2.13;;;27.40;37.20;;;;;;5055061;28;20024;-83
2021/07/20 12:38:11;;;;;;;8.13;2.35;;;27.30;37.90;;;;;;5037525;28;20025;-82
2021/07/20 12:40:38;;;;;;;3.08;2.25;;;27.40;37.80;;;;;;5037465;28;20021;-80
2021/07/20 12:43:15;;;;;;;3.90;2.42;;;27.50;37.40;;;;;;5059666;28;20074;-84
2021/07/20 12:45:44;;;;;;;4.47;2.67;;;27.50;37.40;;;;;;5045778;28;20118;-82
2021/07/20 12:48:28;;;;;;;3.13;2.42;;;27.40;37.90;;;;;;5059018;28;20067;-86
2021/07/20 12:50:55;;;;;;;3.72;2.40;;;27.30;37.90;;;;;;5062390;28;20025;-83
2021/07/20 12:53:25;;;;;;;7.90;2.90;;;27.20;38.80;;;;;;5036619;28;20351;-82
2021/07/20 12:55:51;;;;;;;5.38;2.78;;;27.30;38.70;;;;;;5054548;28;20094;-83
2021/07/20 12:58:20;;;;;;;3.63;2.65;;;27.30;37.90;;;;;;5053914;28;20024;-82
2021/07/20 13:00:47;;;;;;;4.72;3.30;;;27.20;37.60;;;;;;5054388;28;20044;-83
2021/07/20 13:03:13;;;;;;;9.48;2.22;;;27.20;38.10;;;;;;5036026;28;20033;-84
2021/07/20 13:05:41;;;;;;;4.63;2.22;;;27.30;38.10;;;;;;5054293;28;20040;-82
2021/07/20 13:08:07;;;;;;;7.70;2.72;;;27.30;38.30;;;;;;5035875;28;20044;-83
2021/07/20 13:10:34;;;;;;;4.53;2.95;;;27.30;38.30;;;;;;5068744;28;20420;-83